createdAt,value
2018-12-12T00:01:25.212Z,3.64
2018-12-12T00:03:52.810Z,3.62
2018-12-12T00:06:20.536Z,3.72
2018-12-12T00:08:48.079Z,3.88
2018-12-12T00:11:15.654Z,3.84
2018-12-12T00:13:43.173Z,3.73
2018-12-12T00:16:10.727Z,3.79
2018-12-12T00:18:38.358Z,3.79
2018-12-12T00:21:06.075Z,3.74
2018-12-12T00:23:33.568Z,3.75
2018-12-12T00:26:01.281Z,3.63
2018-12-12T00:28:28.883Z,3.62
2018-12-12T00:30:56.607Z,3.61
2018-12-12T00:33:24.137Z,3.56
2018-12-12T00:35:52.806Z,3.61
2018-12-12T00:38:20.339Z,3.49
2018-12-12T00:40:47.909Z,3.35
2018-12-12T00:43:15.586Z,3.28
2018-12-12T00:45:43.109Z,3.37
2018-12-12T00:48:10.671Z,3.40
2018-12-12T00:50:38.386Z,3.34
2018-12-12T00:53:05.971Z,3.50
2018-12-12T00:55:33.545Z,3.50
2018-12-12T00:58:01.298Z,3.55
2018-12-12T01:00:28.857Z,3.56
2018-12-12T01:02:56.448Z,3.62
2018-12-12T01:05:23.973Z,3.62
2018-12-12T01:07:51.602Z,3.59
2018-12-12T01:10:19.234Z,3.68
2018-12-12T01:12:46.817Z,3.66
2018-12-12T01:15:14.452Z,3.67
2018-12-12T01:17:41.966Z,3.78
2018-12-12T01:20:09.649Z,3.77
2018-12-12T01:22:37.248Z,3.77
2018-12-12T01:25:04.960Z,3.84
2018-12-12T01:27:32.555Z,3.86
2018-12-12T01:30:00.150Z,3.68
2018-12-12T01:32:27.770Z,3.74
2018-12-12T01:34:55.341Z,3.66
2018-12-12T01:37:23.142Z,3.54
2018-12-12T01:39:50.956Z,3.35
2018-12-12T01:42:18.514Z,3.47
2018-12-12T01:44:46.051Z,3.38
2018-12-12T01:47:14.528Z,3.35
2018-12-12T01:49:42.094Z,3.28
2018-12-12T01:52:09.613Z,3.11
2018-12-12T01:54:37.236Z,3.20
2018-12-12T01:57:04.783Z,3.00
2018-12-12T01:59:32.369Z,3.14
2018-12-12T02:02:00.007Z,3.18
2018-12-12T02:04:27.550Z,3.31
2018-12-12T02:06:55.112Z,3.37
2018-12-12T02:09:22.900Z,3.42
2018-12-12T02:11:50.477Z,3.53
2018-12-12T02:14:18.130Z,3.48
2018-12-12T02:16:45.773Z,3.54
2018-12-12T02:19:14.221Z,3.54
2018-12-12T02:21:41.807Z,3.55
2018-12-12T02:24:09.354Z,3.65
2018-12-12T02:26:36.961Z,3.70
2018-12-12T02:29:04.700Z,3.77
2018-12-12T02:31:32.283Z,3.76
2018-12-12T02:33:59.839Z,3.78
2018-12-12T02:36:27.479Z,3.65
2018-12-12T02:38:55.226Z,3.64
2018-12-12T02:41:22.895Z,3.64
2018-12-12T02:43:51.780Z,3.59
2018-12-12T02:46:19.707Z,3.58
2018-12-12T02:48:47.215Z,3.61
2018-12-12T02:51:14.734Z,3.72
2018-12-12T02:53:42.327Z,3.66
2018-12-12T02:56:09.954Z,3.76
2018-12-12T02:58:37.623Z,3.71
2018-12-12T03:01:05.255Z,3.69
2018-12-12T03:03:32.882Z,3.67
2018-12-12T03:06:00.660Z,3.71
2018-12-12T03:08:28.350Z,3.72
2018-12-12T03:10:55.899Z,3.71
2018-12-12T03:13:23.465Z,3.70
2018-12-12T03:15:51.139Z,3.72
2018-12-12T03:18:18.778Z,3.81
2018-12-12T03:20:46.301Z,3.87
2018-12-12T03:23:14.630Z,3.89
2018-12-12T03:25:42.304Z,3.88
2018-12-12T03:28:09.833Z,3.88
2018-12-12T03:30:37.408Z,3.87
2018-12-12T03:33:05.050Z,3.90
2018-12-12T03:35:32.620Z,3.79
2018-12-12T03:38:00.243Z,3.75
2018-12-12T03:40:28.081Z,3.85
2018-12-12T03:42:56.023Z,3.97
2018-12-12T03:45:23.591Z,4.02
2018-12-12T03:47:51.093Z,4.06
2018-12-12T03:50:18.815Z,4.02
2018-12-12T03:52:46.454Z,4.07
2018-12-12T03:55:14.042Z,4.05
2018-12-12T03:57:41.718Z,4.09
2018-12-12T04:00:09.582Z,3.91
2018-12-12T04:02:37.245Z,3.92
2018-12-12T04:05:05.213Z,3.93
2018-12-12T04:07:32.870Z,4.03
2018-12-12T04:10:00.481Z,4.07
2018-12-12T04:12:28.035Z,4.16
2018-12-12T04:14:55.624Z,4.16
2018-12-12T04:17:23.159Z,4.13
2018-12-12T04:19:50.924Z,4.15
2018-12-12T04:22:18.964Z,4.19
2018-12-12T04:24:46.929Z,4.23
2018-12-12T04:27:14.581Z,4.25
2018-12-12T04:29:42.097Z,4.31
2018-12-12T04:32:09.665Z,4.26
2018-12-12T04:34:37.336Z,4.26
2018-12-12T04:37:04.967Z,4.35
2018-12-12T04:39:32.583Z,4.33
2018-12-12T04:42:00.185Z,4.20
2018-12-12T04:44:27.776Z,4.30
2018-12-12T04:46:55.303Z,4.29
2018-12-12T04:49:22.989Z,4.40
2018-12-12T04:51:50.536Z,4.18
2018-12-12T04:54:18.144Z,4.20
2018-12-12T04:56:45.712Z,4.19
2018-12-12T04:59:13.514Z,4.27
2018-12-12T05:01:41.036Z,4.23
2018-12-12T05:04:08.666Z,4.20
2018-12-12T05:06:36.197Z,4.17
2018-12-12T05:09:05.547Z,4.18
2018-12-12T05:11:33.390Z,4.20
2018-12-12T05:14:00.959Z,4.15
2018-12-12T05:16:28.519Z,4.12
2018-12-12T05:18:56.078Z,4.10
2018-12-12T05:21:23.720Z,4.14
2018-12-12T05:23:51.478Z,4.15
2018-12-12T05:26:19.276Z,4.12
2018-12-12T05:28:46.917Z,4.12
2018-12-12T05:31:14.668Z,4.06
2018-12-12T05:33:42.246Z,4.11
2018-12-12T05:36:10.020Z,4.01
2018-12-12T05:38:37.583Z,3.94
2018-12-12T05:41:05.399Z,3.97
2018-12-12T05:43:33.240Z,3.99
2018-12-12T05:46:01.285Z,3.79
2018-12-12T05:48:28.938Z,3.76
2018-12-12T05:50:56.695Z,3.65
2018-12-12T05:53:24.418Z,3.57
2018-12-12T05:55:52.136Z,3.52
2018-12-12T05:58:19.659Z,3.49
2018-12-12T06:00:47.359Z,3.49
2018-12-12T06:03:14.913Z,3.51
2018-12-12T06:05:42.530Z,3.54
2018-12-12T06:08:10.120Z,3.52
2018-12-12T06:10:37.709Z,3.53
2018-12-12T06:13:05.405Z,3.49
2018-12-12T06:15:33.434Z,3.41
2018-12-12T06:18:01.026Z,3.43
2018-12-12T06:20:29.209Z,3.41
2018-12-12T06:22:57.557Z,3.43
2018-12-12T06:25:25.509Z,3.36
2018-12-12T06:27:53.529Z,3.40
2018-12-12T06:30:21.215Z,3.35
2018-12-12T06:32:48.755Z,3.36
2018-12-12T06:35:16.468Z,3.38
2018-12-12T06:37:44.021Z,3.49
2018-12-12T06:40:11.582Z,3.56
2018-12-12T06:42:39.158Z,3.61
2018-12-12T06:45:06.966Z,3.69
2018-12-12T06:47:34.537Z,3.83
2018-12-12T06:50:02.101Z,3.88
2018-12-12T06:52:29.676Z,3.84
2018-12-12T06:54:57.314Z,3.97
2018-12-12T06:57:25.399Z,3.95
2018-12-12T06:59:53.057Z,3.91
2018-12-12T07:02:20.595Z,3.56
2018-12-12T07:04:48.471Z,3.82
2018-12-12T07:07:16.994Z,3.89
2018-12-12T07:09:45.214Z,3.91
2018-12-12T07:12:13.629Z,4.03
2018-12-12T07:14:41.214Z,4.09
2018-12-12T07:17:08.852Z,4.15
2018-12-12T07:19:36.783Z,4.11
2018-12-12T07:22:04.552Z,4.11
2018-12-12T07:24:32.311Z,4.23
2018-12-12T07:26:59.937Z,4.19
2018-12-12T07:29:28.195Z,4.18
2018-12-12T07:31:56.323Z,4.14
2018-12-12T07:34:23.863Z,4.17
2018-12-12T07:36:51.441Z,4.23
2018-12-12T07:39:19.177Z,4.26
2018-12-12T07:41:46.919Z,4.20
2018-12-12T07:44:14.462Z,4.23
2018-12-12T07:46:42.435Z,4.30
2018-12-12T07:49:10.321Z,4.35
2018-12-12T07:51:37.838Z,4.45
2018-12-12T07:54:05.423Z,4.32
2018-12-12T07:56:33.085Z,4.46
2018-12-12T07:59:00.626Z,4.48
2018-12-12T08:01:28.214Z,4.49
2018-12-12T08:03:55.969Z,4.41
2018-12-12T08:06:23.537Z,4.32
2018-12-12T08:08:51.211Z,4.32
2018-12-12T08:11:18.787Z,4.38
2018-12-12T08:13:46.313Z,4.44
2018-12-12T08:16:14.017Z,4.55
2018-12-12T08:18:42.033Z,4.48
2018-12-12T08:21:09.675Z,4.47
2018-12-12T08:23:37.365Z,4.44
2018-12-12T08:26:05.197Z,4.42
2018-12-12T08:28:32.812Z,4.49
2018-12-12T08:31:00.797Z,4.45
2018-12-12T08:33:28.445Z,4.42
2018-12-12T08:35:55.986Z,4.35
2018-12-12T08:38:23.589Z,4.20
2018-12-12T08:40:51.205Z,4.34
2018-12-12T08:43:18.757Z,4.25
2018-12-12T08:45:46.687Z,4.34
2018-12-12T08:48:14.293Z,4.58
2018-12-12T08:50:41.815Z,4.68
2018-12-12T08:53:09.437Z,4.55
2018-12-12T08:55:37.058Z,4.79
2018-12-12T08:58:04.645Z,4.87
2018-12-12T09:00:32.178Z,5.03
2018-12-12T09:03:00.420Z,5.01
2018-12-12T09:05:27.972Z,5.10
2018-12-12T09:07:56.033Z,5.13
2018-12-12T09:10:23.585Z,5.15
2018-12-12T09:12:51.137Z,5.17
2018-12-12T09:15:18.665Z,5.10
2018-12-12T09:17:46.399Z,5.14
2018-12-12T09:20:14.121Z,5.20
2018-12-12T09:22:41.650Z,5.20
2018-12-12T09:25:09.195Z,5.28
2018-12-12T09:27:36.757Z,5.28
2018-12-12T09:30:04.865Z,5.30
2018-12-12T09:32:32.409Z,5.28
2018-12-12T09:34:59.961Z,5.35
2018-12-12T09:37:27.454Z,5.37
2018-12-12T09:39:55.147Z,5.47
2018-12-12T09:42:23.371Z,5.60
2018-12-12T09:44:50.936Z,5.59
2018-12-12T09:47:18.707Z,5.53
2018-12-12T09:49:46.263Z,5.56
2018-12-12T09:52:14.051Z,5.47
2018-12-12T09:54:41.699Z,5.60
2018-12-12T09:57:09.247Z,5.70
2018-12-12T09:59:36.808Z,5.96
2018-12-12T10:02:04.383Z,5.99
2018-12-12T10:04:31.881Z,5.88
2018-12-12T10:06:59.381Z,5.68
2018-12-12T10:09:26.955Z,5.76
2018-12-12T10:11:54.537Z,5.69
2018-12-12T10:14:22.167Z,5.70
2018-12-12T10:16:49.736Z,5.82
2018-12-12T10:19:17.342Z,5.96
2018-12-12T10:21:45.622Z,5.91
2018-12-12T10:24:14.036Z,6.01
2018-12-12T10:26:41.812Z,6.05
2018-12-12T10:29:09.710Z,6.28
2018-12-12T10:31:37.237Z,6.53
2018-12-12T10:34:04.830Z,6.57
2018-12-12T10:36:32.337Z,6.72
2018-12-12T10:38:59.869Z,6.76
2018-12-12T10:41:27.561Z,6.87
2018-12-12T10:43:55.121Z,6.68
2018-12-12T10:46:22.719Z,6.67
2018-12-12T10:48:50.555Z,6.49
2018-12-12T10:51:18.143Z,6.51
2018-12-12T10:53:45.734Z,6.27
2018-12-12T10:56:13.247Z,6.19
2018-12-12T10:58:40.785Z,5.98
2018-12-12T11:01:13.778Z,6.36
2018-12-12T11:03:44.406Z,6.77
2018-12-12T11:06:12.175Z,7.19
2018-12-12T11:08:39.759Z,7.43
2018-12-12T11:11:07.378Z,7.39
2018-12-12T11:13:35.068Z,7.42
2018-12-12T11:16:02.743Z,7.58
2018-12-12T11:18:30.307Z,7.66
2018-12-12T11:20:57.856Z,7.33
2018-12-12T11:23:25.638Z,7.25
2018-12-12T11:25:53.399Z,7.09
2018-12-12T11:28:20.918Z,7.09
2018-12-12T11:30:48.581Z,6.97
2018-12-12T11:33:16.091Z,6.84
2018-12-12T11:35:43.696Z,6.59
2018-12-12T11:38:11.245Z,6.71
2018-12-12T11:40:38.926Z,6.75
2018-12-12T11:43:06.486Z,6.78
2018-12-12T11:45:34.705Z,6.88
2018-12-12T11:48:02.344Z,6.73
2018-12-12T11:50:29.902Z,6.60
2018-12-12T11:52:57.448Z,6.67
2018-12-12T11:55:25.020Z,6.70
2018-12-12T11:57:52.584Z,6.68
2018-12-12T12:00:20.245Z,6.91
2018-12-12T12:02:47.906Z,7.05
2018-12-12T12:05:15.485Z,7.07
2018-12-12T12:07:43.095Z,7.17
2018-12-12T12:10:11.194Z,7.23
2018-12-12T12:12:38.766Z,7.31
2018-12-12T12:15:06.868Z,7.34
2018-12-12T12:17:34.576Z,7.34
2018-12-12T12:20:02.241Z,7.28
2018-12-12T12:22:29.783Z,7.13
2018-12-12T12:24:57.578Z,7.16
2018-12-12T12:27:25.240Z,7.22
2018-12-12T12:29:52.935Z,7.20
2018-12-12T12:32:20.607Z,7.07
2018-12-12T12:34:48.239Z,6.95
2018-12-12T12:37:15.868Z,6.50
2018-12-12T12:39:43.427Z,6.59
2018-12-12T12:42:10.975Z,6.64
2018-12-12T12:44:38.720Z,6.79
2018-12-12T12:47:06.477Z,6.81
2018-12-12T12:49:34.215Z,6.41
2018-12-12T12:52:01.810Z,6.49
2018-12-12T12:54:29.911Z,6.51
2018-12-12T12:56:57.426Z,6.41
2018-12-12T12:59:25.037Z,6.34
2018-12-12T13:01:53.514Z,6.20
2018-12-12T13:04:21.049Z,6.28
2018-12-12T13:06:48.753Z,6.34
2018-12-12T13:09:16.406Z,6.03
2018-12-12T13:11:44.289Z,6.23
2018-12-12T13:14:12.190Z,6.46
2018-12-12T13:16:39.913Z,6.52
2018-12-12T13:19:07.699Z,6.55
2018-12-12T13:21:35.466Z,6.62
2018-12-12T13:24:03.061Z,6.58
2018-12-12T13:26:30.780Z,6.58
2018-12-12T13:28:58.440Z,6.56
2018-12-12T13:31:26.211Z,6.54
2018-12-12T13:33:53.844Z,6.56
2018-12-12T13:36:21.420Z,6.51
2018-12-12T13:38:48.980Z,6.39
2018-12-12T13:41:16.620Z,6.55
2018-12-12T13:43:44.183Z,6.64
2018-12-12T13:46:12.767Z,6.54
2018-12-12T13:48:40.425Z,6.55
2018-12-12T13:51:08.007Z,6.53
2018-12-12T13:53:35.511Z,6.51
2018-12-12T13:56:03.119Z,6.44
2018-12-12T13:58:30.789Z,6.46
2018-12-12T14:00:58.335Z,6.27
2018-12-12T14:03:25.910Z,5.98
2018-12-12T14:05:53.499Z,5.85
2018-12-12T14:08:21.217Z,5.77
2018-12-12T14:10:48.769Z,5.93
2018-12-12T14:13:16.348Z,6.04
2018-12-12T14:15:43.863Z,6.07
2018-12-12T14:18:11.525Z,5.98
2018-12-12T14:20:39.275Z,5.75
2018-12-12T14:23:06.856Z,5.82
2018-12-12T14:25:34.546Z,5.90
2018-12-12T14:28:02.085Z,5.88
2018-12-12T14:30:29.662Z,5.88
2018-12-12T14:32:57.250Z,5.87
2018-12-12T14:35:24.895Z,5.85
2018-12-12T14:37:52.427Z,5.82
2018-12-12T14:40:20.021Z,5.80
2018-12-12T14:42:48.445Z,5.80
2018-12-12T14:45:15.978Z,5.77
2018-12-12T14:47:43.527Z,5.76
2018-12-12T14:50:11.038Z,5.70
2018-12-12T14:52:38.611Z,5.64
2018-12-12T14:55:06.227Z,5.70
2018-12-12T14:57:33.971Z,5.76
2018-12-12T15:00:01.672Z,5.67
2018-12-12T15:02:29.297Z,5.74
2018-12-12T15:04:57.097Z,5.72
2018-12-12T15:07:24.605Z,5.72
2018-12-12T15:09:52.219Z,5.66
2018-12-12T15:12:19.897Z,5.57
2018-12-12T15:14:47.621Z,5.62
2018-12-12T15:17:15.361Z,5.66
2018-12-12T15:19:43.521Z,5.68
2018-12-12T15:22:13.361Z,5.61
2018-12-12T15:24:40.934Z,5.58
2018-12-12T15:27:08.450Z,5.62
2018-12-12T15:29:36.012Z,5.57
2018-12-12T15:32:03.869Z,5.57
2018-12-12T15:34:31.453Z,5.53
2018-12-12T15:36:59.111Z,5.40
2018-12-12T15:39:26.697Z,5.35
2018-12-12T15:41:54.231Z,5.30
2018-12-12T15:44:21.898Z,5.24
2018-12-12T15:46:49.420Z,5.35
2018-12-12T15:49:17.557Z,5.33
2018-12-12T15:51:45.169Z,5.39
2018-12-12T15:54:12.899Z,5.33
2018-12-12T15:56:40.446Z,5.39
2018-12-12T15:59:08.145Z,5.22
2018-12-12T16:01:35.920Z,5.22
2018-12-12T16:04:03.802Z,5.26
2018-12-12T16:06:31.436Z,5.28
2018-12-12T16:08:58.942Z,5.26
2018-12-12T16:11:26.566Z,5.27
2018-12-12T16:13:54.217Z,5.23
2018-12-12T16:16:21.812Z,5.28
2018-12-12T16:18:49.367Z,5.29
2018-12-12T16:21:16.905Z,5.30
2018-12-12T16:23:44.433Z,5.17
2018-12-12T16:26:12.210Z,5.23
2018-12-12T16:28:39.741Z,5.24
2018-12-12T16:31:07.455Z,5.08
2018-12-12T16:33:35.005Z,5.29
2018-12-12T16:36:02.754Z,5.21
2018-12-12T16:38:30.263Z,5.28
2018-12-12T16:40:57.797Z,5.17
2018-12-12T16:43:25.332Z,5.29
2018-12-12T16:45:52.846Z,5.30
2018-12-12T16:48:21.021Z,5.26
2018-12-12T16:50:48.574Z,5.24
2018-12-12T16:53:16.088Z,5.36
2018-12-12T16:55:43.660Z,5.27
2018-12-12T16:58:11.390Z,5.36
2018-12-12T17:00:39.006Z,5.17
2018-12-12T17:03:06.667Z,5.17
2018-12-12T17:05:34.176Z,5.20
2018-12-12T17:08:01.808Z,5.24
2018-12-12T17:10:29.430Z,5.21
2018-12-12T17:12:57.151Z,5.21
2018-12-12T17:15:24.645Z,5.21
2018-12-12T17:17:52.197Z,5.19
2018-12-12T17:20:19.759Z,5.15
2018-12-12T17:22:47.313Z,5.10
2018-12-12T17:25:14.972Z,5.11
2018-12-12T17:27:42.619Z,5.09
2018-12-12T17:30:10.382Z,4.94
2018-12-12T17:32:38.025Z,4.98
2018-12-12T17:35:08.823Z,4.96
2018-12-12T17:37:35.255Z,4.89
2018-12-12T17:40:03.120Z,4.88
2018-12-12T17:42:30.671Z,4.85
2018-12-12T17:44:58.277Z,4.92
2018-12-12T17:47:26.081Z,4.87
2018-12-12T17:49:53.648Z,4.88
2018-12-12T17:52:21.195Z,4.87
2018-12-12T17:54:48.742Z,4.74
2018-12-12T17:57:16.353Z,4.76
2018-12-12T17:59:43.875Z,4.74
2018-12-12T18:02:11.905Z,4.73
2018-12-12T18:04:39.532Z,4.76
2018-12-12T18:07:07.263Z,4.81
2018-12-12T18:09:34.937Z,4.75
2018-12-12T18:12:02.752Z,4.76
2018-12-12T18:14:30.495Z,4.69
2018-12-12T18:16:58.175Z,4.69
2018-12-12T18:19:25.785Z,4.66
2018-12-12T18:21:53.379Z,4.62
2018-12-12T18:24:20.959Z,4.61
2018-12-12T18:26:50.233Z,4.64
2018-12-12T18:29:17.785Z,4.67
2018-12-12T18:31:45.373Z,4.67
2018-12-12T18:34:13.004Z,4.62
2018-12-12T18:36:40.769Z,4.57
2018-12-12T18:39:08.441Z,4.52
2018-12-12T18:41:36.169Z,4.47
2018-12-12T18:44:03.958Z,4.40
2018-12-12T18:46:31.691Z,4.35
2018-12-12T18:48:59.382Z,4.32
2018-12-12T18:51:27.166Z,4.27
2018-12-12T18:53:54.700Z,4.27
2018-12-12T18:56:22.182Z,4.22
2018-12-12T18:58:49.748Z,4.12
2018-12-12T19:01:17.269Z,4.07
2018-12-12T19:03:44.945Z,4.09
2018-12-12T19:06:12.726Z,4.09
2018-12-12T19:08:40.397Z,4.06
2018-12-12T19:11:07.944Z,3.90
2018-12-12T19:13:35.475Z,4.04
2018-12-12T19:16:03.210Z,3.98
2018-12-12T19:18:31.022Z,3.92
2018-12-12T19:21:00.178Z,3.96
2018-12-12T19:23:28.186Z,3.98
2018-12-12T19:25:55.890Z,3.92
2018-12-12T19:28:23.915Z,3.86
2018-12-12T19:30:51.604Z,3.68
2018-12-12T19:33:19.280Z,3.68
2018-12-12T19:35:46.994Z,3.69
2018-12-12T19:38:14.641Z,3.70
2018-12-12T19:40:42.251Z,3.64
2018-12-12T19:43:09.876Z,3.61
2018-12-12T19:45:38.484Z,3.47
2018-12-12T19:48:06.124Z,3.48
2018-12-12T19:50:33.709Z,3.46
2018-12-12T19:53:14.291Z,3.46
2018-12-12T19:55:42.376Z,3.36
2018-12-12T19:58:10.131Z,3.30
2018-12-12T20:00:38.150Z,3.21
2018-12-12T20:03:05.789Z,3.16
2018-12-12T20:05:33.406Z,3.12
2018-12-12T20:08:01.094Z,3.13
2018-12-12T20:10:28.921Z,3.08
2018-12-12T20:12:56.552Z,3.00
2018-12-12T20:15:29.584Z,3.00
2018-12-12T20:17:57.319Z,2.98
2018-12-12T20:20:25.046Z,2.94
2018-12-12T20:22:52.870Z,3.00
2018-12-12T20:25:20.583Z,3.07
2018-12-12T20:27:48.836Z,3.13
2018-12-12T20:30:16.491Z,3.22
2018-12-12T20:32:45.006Z,3.28
2018-12-12T20:35:12.758Z,3.36
2018-12-12T20:37:40.508Z,3.41
2018-12-12T20:40:08.237Z,3.48
2018-12-12T20:42:35.814Z,3.57
2018-12-12T20:45:03.711Z,3.58
2018-12-12T20:47:31.486Z,3.58
2018-12-12T20:49:59.214Z,3.57
2018-12-12T20:52:26.927Z,3.61
2018-12-12T20:54:54.550Z,3.60
2018-12-12T20:57:22.226Z,3.58
2018-12-12T20:59:49.775Z,3.56
2018-12-12T21:02:17.336Z,3.53
2018-12-12T21:04:44.870Z,3.41
2018-12-12T21:07:12.652Z,3.45
2018-12-12T21:09:40.323Z,3.37
2018-12-12T21:12:08.024Z,3.33
2018-12-12T21:14:36.506Z,3.20
2018-12-12T21:17:04.064Z,3.19
2018-12-12T21:19:31.695Z,3.19
2018-12-12T21:21:59.350Z,3.17
2018-12-12T21:24:27.050Z,3.11
2018-12-12T21:26:54.770Z,3.08
2018-12-12T21:29:22.335Z,3.02
2018-12-12T21:31:50.259Z,2.99
2018-12-12T21:34:17.893Z,2.87
2018-12-12T21:36:45.379Z,2.88
2018-12-12T21:39:13.063Z,2.78
2018-12-12T21:41:40.706Z,2.74
2018-12-12T21:44:30.888Z,2.68
2018-12-12T21:46:58.482Z,2.58
2018-12-12T21:49:26.009Z,2.54
2018-12-12T21:51:53.813Z,2.41
2018-12-12T21:54:21.652Z,2.35
2018-12-12T21:56:49.427Z,2.28
2018-12-12T21:59:17.177Z,2.23
2018-12-12T22:01:44.712Z,2.22
2018-12-12T22:04:12.757Z,2.19
2018-12-12T22:06:40.460Z,2.15
2018-12-12T22:09:08.590Z,2.15
2018-12-12T22:11:36.109Z,2.07
2018-12-12T22:14:03.944Z,2.03
2018-12-12T22:16:31.654Z,1.97
2018-12-12T22:22:04.479Z,1.85
2018-12-12T22:27:50.130Z,1.69
2018-12-12T22:40:56.707Z,1.40
2018-12-12T22:43:24.321Z,1.37
2018-12-12T22:45:51.954Z,1.36
2018-12-12T22:48:20.777Z,1.30
2018-12-12T22:50:48.564Z,1.23
2018-12-12T22:53:16.102Z,1.18
2018-12-12T22:55:43.677Z,1.17
2018-12-12T22:58:11.474Z,1.14
2018-12-12T23:00:39.317Z,1.09
2018-12-12T23:03:06.952Z,1.04
2018-12-12T23:05:34.610Z,1.00
2018-12-12T23:08:02.240Z,0.96
2018-12-12T23:10:29.862Z,0.97
2018-12-12T23:12:57.405Z,0.93
2018-12-12T23:15:25.294Z,0.91
2018-12-12T23:17:52.849Z,0.86
2018-12-12T23:20:20.847Z,0.84
2018-12-12T23:22:48.449Z,0.83
2018-12-12T23:25:16.259Z,0.85
2018-12-12T23:27:43.912Z,0.84
2018-12-12T23:30:11.471Z,0.78
2018-12-12T23:32:39.388Z,0.75
2018-12-12T23:35:07.260Z,0.74
2018-12-12T23:37:34.882Z,0.77
2018-12-12T23:40:02.946Z,0.81
2018-12-12T23:42:30.489Z,0.78
2018-12-12T23:44:58.032Z,0.79
2018-12-12T23:47:25.592Z,0.75
2018-12-12T23:49:53.271Z,0.72
2018-12-12T23:52:20.953Z,0.65
2018-12-12T23:54:48.655Z,0.66
2018-12-12T23:57:16.264Z,0.61
2018-12-12T23:59:43.835Z,0.58
